sensor_id;sensor_type;location;lat;lon;timestamp;pressure;altitude;pressure_sealevel;temperature;humidity
12987;BME280;58897;51.960;5.582;2023-04-28T00:00:13;101078.00;;;9.88;100.00
12987;BME280;58897;51.960;5.582;2023-04-28T00:02:40;101067.63;;;9.66;100.00
12987;BME280;58897;51.960;5.582;2023-04-28T00:05:07;101075.63;;;9.75;100.00
12987;BME280;58897;51.960;5.582;2023-04-28T00:07:34;101072.22;;;9.56;100.00
12987;BME280;58897;51.960;5.582;2023-04-28T00:10:00;101067.47;;;9.67;100.00
12987;BME280;58897;51.960;5.582;2023-04-28T00:12:26;101055.88;;;9.57;100.00
12987;BME280;58897;51.960;5.582;2023-04-28T00:14:53;101041.25;;;9.60;100.00
12987;BME280;58897;51.960;5.582;2023-04-28T00:17:19;101043.72;;;9.53;100.00
12987;BME280;58897;51.960;5.582;2023-04-28T00:19:46;101045.81;;;9.59;100.00
12987;BME280;58897;51.960;5.582;2023-04-28T00:22:12;101051.66;;;9.55;100.00
12987;BME280;58897;51.960;5.582;2023-04-28T00:24:40;101052.75;;;9.62;100.00
12987;BME280;58897;51.960;5.582;2023-04-28T00:27:07;101028.91;;;9.57;100.00
12987;BME280;58897;51.960;5.582;2023-04-28T00:29:33;101028.38;;;9.54;100.00
12987;BME280;58897;51.960;5.582;2023-04-28T00:32:00;101030.16;;;9.63;100.00
12987;BME280;58897;51.960;5.582;2023-04-28T00:34:26;101025.31;;;9.66;100.00
12987;BME280;58897;51.960;5.582;2023-04-28T00:36:56;101022.75;;;9.65;100.00
12987;BME280;58897;51.960;5.582;2023-04-28T00:39:23;101014.28;;;9.60;100.00
12987;BME280;58897;51.960;5.582;2023-04-28T00:41:50;101004.59;;;9.67;100.00
12987;BME280;58897;51.960;5.582;2023-04-28T00:44:17;101001.81;;;9.59;100.00
12987;BME280;58897;51.960;5.582;2023-04-28T00:46:43;100995.03;;;9.72;100.00
12987;BME280;58897;51.960;5.582;2023-04-28T00:49:10;100994.31;;;9.70;100.00
12987;BME280;58897;51.960;5.582;2023-04-28T00:51:37;100987.63;;;9.57;100.00
12987;BME280;58897;51.960;5.582;2023-04-28T00:54:05;100987.16;;;9.61;100.00
12987;BME280;58897;51.960;5.582;2023-04-28T00:56:32;100987.84;;;9.63;100.00
12987;BME280;58897;51.960;5.582;2023-04-28T00:58:59;100995.25;;;9.44;100.00
12987;BME280;58897;51.960;5.582;2023-04-28T01:01:25;100992.09;;;9.21;100.00
12987;BME280;58897;51.960;5.582;2023-04-28T01:03:52;100990.03;;;9.15;100.00
12987;BME280;58897;51.960;5.582;2023-04-28T01:06:19;100989.38;;;9.03;100.00
12987;BME280;58897;51.960;5.582;2023-04-28T01:08:49;100982.38;;;9.10;100.00
12987;BME280;58897;51.960;5.582;2023-04-28T01:11:16;100970.97;;;8.99;100.00
12987;BME280;58897;51.960;5.582;2023-04-28T01:13:43;100980.44;;;9.03;100.00
12987;BME280;58897;51.960;5.582;2023-04-28T01:16:09;100972.53;;;9.01;100.00
12987;BME280;58897;51.960;5.582;2023-04-28T01:18:37;100974.03;;;8.86;100.00
12987;BME280;58897;51.960;5.582;2023-04-28T01:21:04;100980.63;;;8.92;100.00
12987;BME280;58897;51.960;5.582;2023-04-28T01:23:31;100981.47;;;8.92;100.00
12987;BME280;58897;51.960;5.582;2023-04-28T01:25:57;100973.50;;;9.00;100.00
12987;BME280;58897;51.960;5.582;2023-04-28T01:28:24;100969.72;;;8.93;100.00
12987;BME280;58897;51.960;5.582;2023-04-28T01:30:50;100971.31;;;8.86;100.00
12987;BME280;58897;51.960;5.582;2023-04-28T01:33:17;100967.88;;;8.94;100.00
12987;BME280;58897;51.960;5.582;2023-04-28T01:35:43;100963.66;;;8.82;100.00
12987;BME280;58897;51.960;5.582;2023-04-28T01:38:09;100963.75;;;8.99;100.00
12987;BME280;58897;51.960;5.582;2023-04-28T01:40:36;100962.44;;;9.03;100.00
12987;BME280;58897;51.960;5.582;2023-04-28T01:43:02;100950.41;;;8.98;100.00
12987;BME280;58897;51.960;5.582;2023-04-28T01:45:29;100952.50;;;9.04;100.00
12987;BME280;58897;51.960;5.582;2023-04-28T01:47:56;100952.47;;;8.86;100.00
12987;BME280;58897;51.960;5.582;2023-04-28T01:50:22;100942.31;;;8.98;100.00
12987;BME280;58897;51.960;5.582;2023-04-28T01:52:49;100934.69;;;8.93;100.00
12987;BME280;58897;51.960;5.582;2023-04-28T01:55:15;100930.28;;;8.92;100.00
12987;BME280;58897;51.960;5.582;2023-04-28T01:57:42;100935.94;;;8.99;100.00
12987;BME280;58897;51.960;5.582;2023-04-28T02:00:08;100941.69;;;8.86;100.00
12987;BME280;58897;51.960;5.582;2023-04-28T02:02:35;100936.38;;;8.94;100.00
12987;BME280;58897;51.960;5.582;2023-04-28T02:05:02;100933.28;;;8.89;100.00
12987;BME280;58897;51.960;5.582;2023-04-28T02:07:29;100928.00;;;8.97;100.00
12987;BME280;58897;51.960;5.582;2023-04-28T02:09:55;100927.59;;;8.92;100.00
12987;BME280;58897;51.960;5.582;2023-04-28T02:12:22;100927.50;;;8.84;100.00
12987;BME280;58897;51.960;5.582;2023-04-28T02:14:48;100919.81;;;8.89;100.00
12987;BME280;58897;51.960;5.582;2023-04-28T02:17:16;100918.25;;;8.96;100.00
12987;BME280;58897;51.960;5.582;2023-04-28T02:19:42;100913.84;;;8.95;100.00
12987;BME280;58897;51.960;5.582;2023-04-28T02:22:09;100907.97;;;9.00;100.00
12987;BME280;58897;51.960;5.582;2023-04-28T02:24:35;100902.84;;;8.89;100.00
12987;BME280;58897;51.960;5.582;2023-04-28T02:27:03;100896.81;;;8.95;100.00
12987;BME280;58897;51.960;5.582;2023-04-28T02:29:30;100898.81;;;8.93;100.00
12987;BME280;58897;51.960;5.582;2023-04-28T02:31:57;100899.56;;;8.85;100.00
12987;BME280;58897;51.960;5.582;2023-04-28T02:34:24;100892.28;;;8.95;100.00
12987;BME280;58897;51.960;5.582;2023-04-28T02:36:50;100897.97;;;8.92;100.00
12987;BME280;58897;51.960;5.582;2023-04-28T02:39:17;100884.97;;;8.88;100.00
12987;BME280;58897;51.960;5.582;2023-04-28T02:41:43;100888.97;;;8.84;100.00
12987;BME280;58897;51.960;5.582;2023-04-28T02:44:10;100883.16;;;8.79;100.00
12987;BME280;58897;51.960;5.582;2023-04-28T02:46:36;100863.00;;;8.83;100.00
12987;BME280;58897;51.960;5.582;2023-04-28T02:49:03;100857.78;;;8.81;100.00
12987;BME280;58897;51.960;5.582;2023-04-28T02:51:29;100854.69;;;8.76;100.00
12987;BME280;58897;51.960;5.582;2023-04-28T02:53:56;100854.16;;;8.90;100.00
12987;BME280;58897;51.960;5.582;2023-04-28T02:56:23;100852.34;;;8.91;100.00
12987;BME280;58897;51.960;5.582;2023-04-28T02:58:49;100858.56;;;8.91;100.00
12987;BME280;58897;51.960;5.582;2023-04-28T03:01:16;100852.13;;;8.57;100.00
12987;BME280;58897;51.960;5.582;2023-04-28T03:03:42;100855.81;;;8.74;100.00
12987;BME280;58897;51.960;5.582;2023-04-28T03:06:09;100846.56;;;8.86;100.00
12987;BME280;58897;51.960;5.582;2023-04-28T03:08:36;100845.69;;;8.85;100.00
12987;BME280;58897;51.960;5.582;2023-04-28T03:11:02;100840.44;;;8.66;100.00
12987;BME280;58897;51.960;5.582;2023-04-28T03:13:29;100839.16;;;8.70;100.00
12987;BME280;58897;51.960;5.582;2023-04-28T03:15:55;100834.44;;;8.72;100.00
12987;BME280;58897;51.960;5.582;2023-04-28T03:18:22;100831.00;;;8.80;100.00
12987;BME280;58897;51.960;5.582;2023-04-28T03:20:49;100829.34;;;8.69;100.00
12987;BME280;58897;51.960;5.582;2023-04-28T03:23:15;100828.91;;;8.74;100.00
12987;BME280;58897;51.960;5.582;2023-04-28T03:25:42;100833.97;;;8.77;100.00
12987;BME280;58897;51.960;5.582;2023-04-28T03:28:08;100838.09;;;8.81;100.00
12987;BME280;58897;51.960;5.582;2023-04-28T03:30:35;100827.69;;;8.86;100.00
12987;BME280;58897;51.960;5.582;2023-04-28T03:33:02;100823.31;;;8.85;100.00
12987;BME280;58897;51.960;5.582;2023-04-28T03:35:29;100827.06;;;8.92;100.00
12987;BME280;58897;51.960;5.582;2023-04-28T03:37:55;100824.16;;;8.85;100.00
12987;BME280;58897;51.960;5.582;2023-04-28T03:40:21;100833.31;;;8.92;100.00
12987;BME280;58897;51.960;5.582;2023-04-28T03:42:48;100826.47;;;8.80;100.00
12987;BME280;58897;51.960;5.582;2023-04-28T03:45:14;100820.78;;;8.83;100.00
12987;BME280;58897;51.960;5.582;2023-04-28T03:47:41;100815.50;;;8.82;100.00
12987;BME280;58897;51.960;5.582;2023-04-28T03:50:08;100812.59;;;8.93;100.00
12987;BME280;58897;51.960;5.582;2023-04-28T03:52:35;100816.28;;;8.92;100.00
12987;BME280;58897;51.960;5.582;2023-04-28T03:55:02;100823.94;;;8.96;100.00
12987;BME280;58897;51.960;5.582;2023-04-28T03:57:28;100818.22;;;8.82;100.00
12987;BME280;58897;51.960;5.582;2023-04-28T03:59:54;100809.75;;;8.77;100.00
12987;BME280;58897;51.960;5.582;2023-04-28T04:02:21;100810.13;;;8.82;100.00
12987;BME280;58897;51.960;5.582;2023-04-28T04:04:48;100805.22;;;8.77;100.00
12987;BME280;58897;51.960;5.582;2023-04-28T04:07:15;100790.84;;;8.86;100.00
12987;BME280;58897;51.960;5.582;2023-04-28T04:09:41;100791.91;;;8.93;100.00
12987;BME280;58897;51.960;5.582;2023-04-28T04:12:08;100789.75;;;8.97;100.00
12987;BME280;58897;51.960;5.582;2023-04-28T04:14:34;100783.13;;;8.91;100.00
12987;BME280;58897;51.960;5.582;2023-04-28T04:17:00;100779.91;;;8.88;100.00
12987;BME280;58897;51.960;5.582;2023-04-28T04:19:27;100777.59;;;8.93;100.00
12987;BME280;58897;51.960;5.582;2023-04-28T04:21:53;100783.13;;;8.91;100.00
12987;BME280;58897;51.960;5.582;2023-04-28T04:24:20;100778.75;;;8.90;100.00
12987;BME280;58897;51.960;5.582;2023-04-28T04:26:46;100783.19;;;8.82;100.00
12987;BME280;58897;51.960;5.582;2023-04-28T04:29:13;100775.44;;;8.96;100.00
12987;BME280;58897;51.960;5.582;2023-04-28T04:31:39;100764.13;;;8.93;100.00
12987;BME280;58897;51.960;5.582;2023-04-28T04:34:06;100767.34;;;8.96;100.00
12987;BME280;58897;51.960;5.582;2023-04-28T04:36:32;100767.56;;;9.03;100.00
12987;BME280;58897;51.960;5.582;2023-04-28T04:38:59;100765.28;;;8.90;100.00
12987;BME280;58897;51.960;5.582;2023-04-28T04:41:25;100771.50;;;8.91;100.00
12987;BME280;58897;51.960;5.582;2023-04-28T04:43:52;100764.66;;;8.96;100.00
12987;BME280;58897;51.960;5.582;2023-04-28T04:46:18;100763.25;;;8.92;100.00
12987;BME280;58897;51.960;5.582;2023-04-28T04:48:45;100760.06;;;8.89;100.00
12987;BME280;58897;51.960;5.582;2023-04-28T04:51:12;100750.56;;;8.85;100.00
12987;BME280;58897;51.960;5.582;2023-04-28T04:53:38;100754.19;;;8.93;100.00
12987;BME280;58897;51.960;5.582;2023-04-28T04:56:05;100760.81;;;8.99;100.00
12987;BME280;58897;51.960;5.582;2023-04-28T04:58:31;100756.88;;;8.93;100.00
12987;BME280;58897;51.960;5.582;2023-04-28T05:00:58;100759.88;;;8.90;100.00
12987;BME280;58897;51.960;5.582;2023-04-28T05:03:25;100749.34;;;8.97;100.00
12987;BME280;58897;51.960;5.582;2023-04-28T05:05:52;100738.88;;;8.94;100.00
12987;BME280;58897;51.960;5.582;2023-04-28T05:08:18;100743.25;;;8.95;100.00
12987;BME280;58897;51.960;5.582;2023-04-28T05:10:45;100742.84;;;9.07;100.00
12987;BME280;58897;51.960;5.582;2023-04-28T05:13:11;100743.19;;;9.04;100.00
12987;BME280;58897;51.960;5.582;2023-04-28T05:15:37;100736.78;;;9.05;100.00
12987;BME280;58897;51.960;5.582;2023-04-28T05:18:04;100741.78;;;9.00;100.00
12987;BME280;58897;51.960;5.582;2023-04-28T05:20:36;100742.56;;;8.93;100.00
12987;BME280;58897;51.960;5.582;2023-04-28T05:23:03;100736.03;;;8.95;100.00
12987;BME280;58897;51.960;5.582;2023-04-28T05:25:29;100740.34;;;8.88;100.00
12987;BME280;58897;51.960;5.582;2023-04-28T05:27:56;100745.56;;;8.90;100.00
12987;BME280;58897;51.960;5.582;2023-04-28T05:30:22;100742.25;;;8.96;100.00
12987;BME280;58897;51.960;5.582;2023-04-28T05:32:49;100736.28;;;9.10;100.00
12987;BME280;58897;51.960;5.582;2023-04-28T05:35:15;100734.63;;;9.09;100.00
12987;BME280;58897;51.960;5.582;2023-04-28T05:37:42;100734.00;;;9.15;100.00
12987;BME280;58897;51.960;5.582;2023-04-28T05:40:10;100739.22;;;9.16;100.00
12987;BME280;58897;51.960;5.582;2023-04-28T05:42:36;100740.31;;;9.06;100.00
12987;BME280;58897;51.960;5.582;2023-04-28T05:45:04;100727.75;;;9.14;100.00
12987;BME280;58897;51.960;5.582;2023-04-28T05:47:31;100733.16;;;9.14;100.00
12987;BME280;58897;51.960;5.582;2023-04-28T05:49:57;100737.22;;;9.18;100.00
12987;BME280;58897;51.960;5.582;2023-04-28T05:52:24;100750.63;;;9.10;100.00
12987;BME280;58897;51.960;5.582;2023-04-28T05:54:50;100758.81;;;9.01;100.00
12987;BME280;58897;51.960;5.582;2023-04-28T05:57:17;100763.25;;;9.10;100.00
12987;BME280;58897;51.960;5.582;2023-04-28T05:59:44;100752.31;;;9.11;100.00
12987;BME280;58897;51.960;5.582;2023-04-28T06:02:10;100756.47;;;9.06;100.00
12987;BME280;58897;51.960;5.582;2023-04-28T06:04:37;100750.78;;;9.09;100.00
12987;BME280;58897;51.960;5.582;2023-04-28T06:07:04;100745.94;;;9.12;100.00
12987;BME280;58897;51.960;5.582;2023-04-28T06:09:31;100739.78;;;9.20;100.00
12987;BME280;58897;51.960;5.582;2023-04-28T06:11:57;100732.50;;;9.20;100.00
12987;BME280;58897;51.960;5.582;2023-04-28T06:14:24;100752.53;;;9.18;100.00
12987;BME280;58897;51.960;5.582;2023-04-28T06:16:51;100760.09;;;9.14;100.00
12987;BME280;58897;51.960;5.582;2023-04-28T06:19:17;100766.47;;;9.13;100.00
12987;BME280;58897;51.960;5.582;2023-04-28T06:21:44;100760.97;;;9.15;100.00
12987;BME280;58897;51.960;5.582;2023-04-28T06:24:11;100746.22;;;9.27;100.00
12987;BME280;58897;51.960;5.582;2023-04-28T06:26:38;100738.06;;;9.45;100.00
12987;BME280;58897;51.960;5.582;2023-04-28T06:29:04;100738.81;;;9.55;100.00
12987;BME280;58897;51.960;5.582;2023-04-28T06:31:31;100744.13;;;9.64;100.00
12987;BME280;58897;51.960;5.582;2023-04-28T06:33:57;100737.63;;;9.83;100.00
12987;BME280;58897;51.960;5.582;2023-04-28T06:36:24;100735.28;;;9.80;100.00
12987;BME280;58897;51.960;5.582;2023-04-28T06:38:50;100744.91;;;9.82;100.00
12987;BME280;58897;51.960;5.582;2023-04-28T06:41:17;100746.66;;;10.00;100.00
12987;BME280;58897;51.960;5.582;2023-04-28T06:43:43;100742.72;;;10.20;100.00
12987;BME280;58897;51.960;5.582;2023-04-28T06:46:10;100752.31;;;10.14;100.00
12987;BME280;58897;51.960;5.582;2023-04-28T06:48:37;100751.97;;;10.17;100.00
12987;BME280;58897;51.960;5.582;2023-04-28T06:51:04;100760.81;;;10.02;100.00
12987;BME280;58897;51.960;5.582;2023-04-28T06:53:30;100753.72;;;9.92;100.00
12987;BME280;58897;51.960;5.582;2023-04-28T06:55:57;100749.84;;;9.95;100.00
12987;BME280;58897;51.960;5.582;2023-04-28T06:58:23;100756.53;;;10.17;100.00
12987;BME280;58897;51.960;5.582;2023-04-28T07:00:50;100759.50;;;10.06;100.00
12987;BME280;58897;51.960;5.582;2023-04-28T07:03:16;100753.63;;;10.10;100.00
12987;BME280;58897;51.960;5.582;2023-04-28T07:05:43;100749.06;;;10.11;100.00
12987;BME280;58897;51.960;5.582;2023-04-28T07:08:10;100749.28;;;10.17;100.00
12987;BME280;58897;51.960;5.582;2023-04-28T07:10:36;100754.53;;;10.19;100.00
12987;BME280;58897;51.960;5.582;2023-04-28T07:13:03;100744.28;;;10.30;100.00
12987;BME280;58897;51.960;5.582;2023-04-28T07:15:29;100743.78;;;10.27;100.00
12987;BME280;58897;51.960;5.582;2023-04-28T07:17:56;100725.91;;;10.42;100.00
12987;BME280;58897;51.960;5.582;2023-04-28T07:20:23;100735.56;;;10.52;100.00
12987;BME280;58897;51.960;5.582;2023-04-28T07:22:50;100732.06;;;10.68;100.00
12987;BME280;58897;51.960;5.582;2023-04-28T07:25:16;100729.34;;;10.68;100.00
12987;BME280;58897;51.960;5.582;2023-04-28T07:27:44;100729.19;;;10.70;100.00
12987;BME280;58897;51.960;5.582;2023-04-28T07:30:11;100723.78;;;10.78;100.00
12987;BME280;58897;51.960;5.582;2023-04-28T07:32:52;100721.94;;;10.94;100.00
12987;BME280;58897;51.960;5.582;2023-04-28T07:35:19;100726.66;;;10.92;100.00
12987;BME280;58897;51.960;5.582;2023-04-28T07:37:46;100723.94;;;10.68;100.00
12987;BME280;58897;51.960;5.582;2023-04-28T07:40:12;100729.53;;;10.75;100.00
12987;BME280;58897;51.960;5.582;2023-04-28T07:42:39;100717.84;;;10.74;100.00
12987;BME280;58897;51.960;5.582;2023-04-28T07:45:06;100725.16;;;10.74;100.00
12987;BME280;58897;51.960;5.582;2023-04-28T07:47:33;100723.13;;;10.84;100.00
12987;BME280;58897;51.960;5.582;2023-04-28T07:50:00;100725.00;;;11.07;100.00
12987;BME280;58897;51.960;5.582;2023-04-28T07:52:30;100724.16;;;11.15;100.00
12987;BME280;58897;51.960;5.582;2023-04-28T07:54:57;100725.31;;;11.29;100.00
12987;BME280;58897;51.960;5.582;2023-04-28T07:57:24;100729.34;;;11.41;100.00
12987;BME280;58897;51.960;5.582;2023-04-28T07:59:51;100722.22;;;11.48;100.00
12987;BME280;58897;51.960;5.582;2023-04-28T08:02:18;100721.22;;;11.57;100.00
12987;BME280;58897;51.960;5.582;2023-04-28T08:04:46;100729.00;;;11.60;100.00
12987;BME280;58897;51.960;5.582;2023-04-28T08:07:13;100723.91;;;11.57;100.00
12987;BME280;58897;51.960;5.582;2023-04-28T08:09:39;100714.28;;;11.70;100.00
12987;BME280;58897;51.960;5.582;2023-04-28T08:12:09;100714.94;;;11.72;100.00
12987;BME280;58897;51.960;5.582;2023-04-28T08:14:35;100719.56;;;12.03;100.00
12987;BME280;58897;51.960;5.582;2023-04-28T08:17:02;100717.41;;;11.98;100.00
12987;BME280;58897;51.960;5.582;2023-04-28T08:19:29;100726.97;;;11.70;100.00
12987;BME280;58897;51.960;5.582;2023-04-28T08:21:56;100730.69;;;11.53;100.00
12987;BME280;58897;51.960;5.582;2023-04-28T08:24:22;100732.03;;;11.57;100.00
12987;BME280;58897;51.960;5.582;2023-04-28T08:26:49;100731.00;;;11.58;100.00
12987;BME280;58897;51.960;5.582;2023-04-28T08:29:16;100735.75;;;11.56;100.00
12987;BME280;58897;51.960;5.582;2023-04-28T08:31:42;100746.91;;;11.45;100.00
12987;BME280;58897;51.960;5.582;2023-04-28T08:34:09;100749.47;;;11.38;100.00
12987;BME280;58897;51.960;5.582;2023-04-28T08:36:35;100744.41;;;11.35;100.00
12987;BME280;58897;51.960;5.582;2023-04-28T08:39:02;100752.84;;;11.32;100.00
12987;BME280;58897;51.960;5.582;2023-04-28T08:41:31;100742.69;;;11.42;100.00
12987;BME280;58897;51.960;5.582;2023-04-28T08:43:58;100742.69;;;11.34;100.00
12987;BME280;58897;51.960;5.582;2023-04-28T08:46:26;100735.94;;;11.54;100.00
12987;BME280;58897;51.960;5.582;2023-04-28T08:48:58;100740.97;;;11.73;100.00
12987;BME280;58897;51.960;5.582;2023-04-28T08:51:32;100731.31;;;11.87;100.00
12987;BME280;58897;51.960;5.582;2023-04-28T08:54:01;100729.88;;;12.07;100.00
12987;BME280;58897;51.960;5.582;2023-04-28T08:56:50;100731.50;;;11.86;100.00
12987;BME280;58897;51.960;5.582;2023-04-28T08:59:17;100737.44;;;11.57;100.00
12987;BME280;58897;51.960;5.582;2023-04-28T09:01:47;100734.72;;;11.65;100.00
12987;BME280;58897;51.960;5.582;2023-04-28T09:04:16;100730.13;;;11.82;100.00
12987;BME280;58897;51.960;5.582;2023-04-28T09:06:43;100740.50;;;11.70;100.00
12987;BME280;58897;51.960;5.582;2023-04-28T09:09:24;100744.22;;;11.69;100.00
12987;BME280;58897;51.960;5.582;2023-04-28T09:11:58;100747.22;;;11.58;100.00
12987;BME280;58897;51.960;5.582;2023-04-28T09:14:27;100749.13;;;11.49;100.00
12987;BME280;58897;51.960;5.582;2023-04-28T09:16:54;100742.53;;;11.52;100.00
12987;BME280;58897;51.960;5.582;2023-04-28T09:19:21;100750.13;;;11.56;100.00
12987;BME280;58897;51.960;5.582;2023-04-28T09:21:50;100756.06;;;11.60;100.00
12987;BME280;58897;51.960;5.582;2023-04-28T09:24:34;100759.09;;;11.65;100.00
12987;BME280;58897;51.960;5.582;2023-04-28T09:27:03;100755.88;;;11.61;100.00
12987;BME280;58897;51.960;5.582;2023-04-28T09:29:31;100754.00;;;11.62;100.00
12987;BME280;58897;51.960;5.582;2023-04-28T09:32:13;100756.53;;;11.63;100.00
12987;BME280;58897;51.960;5.582;2023-04-28T09:35:01;100759.56;;;11.60;100.00
12987;BME280;58897;51.960;5.582;2023-04-28T09:37:28;100761.78;;;11.65;100.00
12987;BME280;58897;51.960;5.582;2023-04-28T09:40:16;100764.66;;;11.71;100.00
12987;BME280;58897;51.960;5.582;2023-04-28T09:42:44;100767.53;;;11.62;100.00
12987;BME280;58897;51.960;5.582;2023-04-28T09:45:13;100771.41;;;11.67;100.00
12987;BME280;58897;51.960;5.582;2023-04-28T09:47:44;100773.44;;;11.73;100.00
12987;BME280;58897;51.960;5.582;2023-04-28T09:50:14;100761.09;;;11.71;100.00
12987;BME280;58897;51.960;5.582;2023-04-28T09:52:44;100758.91;;;11.83;100.00
12987;BME280;58897;51.960;5.582;2023-04-28T09:55:14;100764.28;;;11.91;100.00
12987;BME280;58897;51.960;5.582;2023-04-28T09:57:43;100758.03;;;11.90;100.00
12987;BME280;58897;51.960;5.582;2023-04-28T10:00:11;100763.97;;;11.86;100.00
12987;BME280;58897;51.960;5.582;2023-04-28T10:02:38;100771.06;;;11.87;100.00
12987;BME280;58897;51.960;5.582;2023-04-28T10:05:09;100765.97;;;11.84;100.00
12987;BME280;58897;51.960;5.582;2023-04-28T10:07:37;100760.06;;;11.96;100.00
12987;BME280;58897;51.960;5.582;2023-04-28T10:10:06;100763.06;;;12.01;100.00
12987;BME280;58897;51.960;5.582;2023-04-28T10:12:33;100760.19;;;12.03;100.00
12987;BME280;58897;51.960;5.582;2023-04-28T10:15:00;100761.16;;;12.10;100.00
12987;BME280;58897;51.960;5.582;2023-04-28T10:17:27;100758.28;;;12.11;100.00
12987;BME280;58897;51.960;5.582;2023-04-28T10:19:55;100765.88;;;12.16;100.00
12987;BME280;58897;51.960;5.582;2023-04-28T10:25:35;100759.06;;;12.28;100.00
12987;BME280;58897;51.960;5.582;2023-04-28T10:27:56;100765.00;;;12.23;100.00
12987;BME280;58897;51.960;5.582;2023-04-28T10:30:24;100769.06;;;12.27;100.00
12987;BME280;58897;51.960;5.582;2023-04-28T10:38:02;100780.03;;;12.34;100.00
12987;BME280;58897;51.960;5.582;2023-04-28T10:42:58;100770.63;;;12.53;100.00
12987;BME280;58897;51.960;5.582;2023-04-28T10:56:28;100772.03;;;12.49;100.00
12987;BME280;58897;51.960;5.582;2023-04-28T10:58:59;100771.47;;;12.53;100.00
12987;BME280;58897;51.960;5.582;2023-04-28T11:01:27;100777.59;;;12.47;100.00
12987;BME280;58897;51.960;5.582;2023-04-28T11:04:04;100775.19;;;12.52;100.00
12987;BME280;58897;51.960;5.582;2023-04-28T11:06:36;100779.47;;;12.47;100.00
12987;BME280;58897;51.960;5.582;2023-04-28T11:12:05;100772.06;;;12.41;100.00
12987;BME280;58897;51.960;5.582;2023-04-28T11:14:34;100774.56;;;12.42;100.00
12987;BME280;58897;51.960;5.582;2023-04-28T11:17:02;100770.66;;;12.45;100.00
12987;BME280;58897;51.960;5.582;2023-04-28T11:19:37;100772.31;;;12.54;100.00
12987;BME280;58897;51.960;5.582;2023-04-28T11:24:37;100779.66;;;12.45;100.00
12987;BME280;58897;51.960;5.582;2023-04-28T11:27:03;100776.25;;;12.51;100.00
12987;BME280;58897;51.960;5.582;2023-04-28T11:31:58;100772.31;;;12.54;100.00
12987;BME280;58897;51.960;5.582;2023-04-28T11:34:25;100771.47;;;12.53;100.00
12987;BME280;58897;51.960;5.582;2023-04-28T11:36:52;100770.72;;;12.67;100.00
12987;BME280;58897;51.960;5.582;2023-04-28T11:39:32;100765.25;;;12.75;100.00
12987;BME280;58897;51.960;5.582;2023-04-28T11:42:08;100770.97;;;12.80;100.00
12987;BME280;58897;51.960;5.582;2023-04-28T11:44:35;100768.09;;;12.82;100.00
12987;BME280;58897;51.960;5.582;2023-04-28T11:47:03;100761.31;;;12.78;100.00
12987;BME280;58897;51.960;5.582;2023-04-28T11:49:50;100769.75;;;12.83;100.00
12987;BME280;58897;51.960;5.582;2023-04-28T11:52:17;100776.88;;;12.84;100.00
12987;BME280;58897;51.960;5.582;2023-04-28T11:54:43;100771.00;;;12.72;100.00
12987;BME280;58897;51.960;5.582;2023-04-28T11:57:18;100775.91;;;12.77;100.00
12987;BME280;58897;51.960;5.582;2023-04-28T11:59:45;100772.06;;;12.71;100.00
12987;BME280;58897;51.960;5.582;2023-04-28T12:02:12;100766.75;;;12.78;100.00
12987;BME280;58897;51.960;5.582;2023-04-28T12:04:40;100765.25;;;12.75;100.00
12987;BME280;58897;51.960;5.582;2023-04-28T12:07:14;100769.28;;;12.79;100.00
12987;BME280;58897;51.960;5.582;2023-04-28T12:09:42;100762.63;;;12.59;100.00
12987;BME280;58897;51.960;5.582;2023-04-28T12:19:57;100776.81;;;12.69;100.00
12987;BME280;58897;51.960;5.582;2023-04-28T12:22:24;100776.31;;;12.66;100.00
12987;BME280;58897;51.960;5.582;2023-04-28T12:25:07;100775.81;;;12.62;100.00
12987;BME280;58897;51.960;5.582;2023-04-28T12:27:36;100771.28;;;12.55;100.00
12987;BME280;58897;51.960;5.582;2023-04-28T12:32:46;100777.03;;;12.60;100.00
12987;BME280;58897;51.960;5.582;2023-04-28T12:35:13;100778.63;;;12.77;100.00
12987;BME280;58897;51.960;5.582;2023-04-28T12:37:41;100782.00;;;13.01;100.00
12987;BME280;58897;51.960;5.582;2023-04-28T12:40:08;100777.00;;;13.21;100.00
12987;BME280;58897;51.960;5.582;2023-04-28T12:42:36;100764.38;;;13.06;100.00
12987;BME280;58897;51.960;5.582;2023-04-28T12:45:02;100771.00;;;13.03;100.00
12987;BME280;58897;51.960;5.582;2023-04-28T12:47:30;100770.63;;;13.06;100.00
12987;BME280;58897;51.960;5.582;2023-04-28T12:49:56;100760.13;;;13.11;100.00
12987;BME280;58897;51.960;5.582;2023-04-28T12:52:23;100765.28;;;13.21;100.00
12987;BME280;58897;51.960;5.582;2023-04-28T12:54:49;100757.88;;;13.15;100.00
12987;BME280;58897;51.960;5.582;2023-04-28T12:57:18;100750.19;;;13.41;100.00
12987;BME280;58897;51.960;5.582;2023-04-28T12:59:45;100745.25;;;13.44;100.00
12987;BME280;58897;51.960;5.582;2023-04-28T13:02:14;100742.53;;;13.59;100.00
12987;BME280;58897;51.960;5.582;2023-04-28T13:04:41;100750.38;;;13.39;100.00
12987;BME280;58897;51.960;5.582;2023-04-28T13:07:14;100753.63;;;13.35;100.00
12987;BME280;58897;51.960;5.582;2023-04-28T13:09:41;100752.63;;;13.50;100.00
12987;BME280;58897;51.960;5.582;2023-04-28T13:12:09;100743.31;;;13.30;100.00
12987;BME280;58897;51.960;5.582;2023-04-28T13:14:37;100750.72;;;13.22;100.00
12987;BME280;58897;51.960;5.582;2023-04-28T13:17:03;100748.81;;;13.45;100.00
12987;BME280;58897;51.960;5.582;2023-04-28T13:19:30;100753.13;;;13.54;100.00
12987;BME280;58897;51.960;5.582;2023-04-28T13:21:59;100751.25;;;13.54;100.00
12987;BME280;58897;51.960;5.582;2023-04-28T13:24:25;100755.31;;;13.73;100.00
12987;BME280;58897;51.960;5.582;2023-04-28T13:26:52;100754.16;;;13.53;100.00